Aeroporto :
LOGIN :

Iscrizione | Disclaimer

   EN    FR    IT 

 










Sommario :    VFR   VFR Marginale   IFR   IFR Intensivo   IFR Molto Intensivo
Visibilità : 
Base nubi : 
>= 8 km
>= 3000ft
5 / 8 km
1000 / 3000 ft
1500m / 5 km
500 / 1000 ft
800 / 1500m
200 / 500 ft
< 800m
< 200 ft
Simboli :   Temporali  Nebbia  Neve Forte  Precipitazioni Forti  Vento > 20 kt
SIGMETs :   Varie  Temporali  Ghiacco  Turbolenza  Onda orograficha  Ceneri Vulcaniche







- Altitudine del aeroporto : 510 ft


LJCE - Cerklje

ULTIMO METAR :
  • 210900Z VRB02KT CAVOK 14/08 Q1028

METARs OBSOLETI :
  • 210830Z VRB02KT CAVOK 13/07 Q1028
  • 210800Z VRB02KT CAVOK 11/07 Q1028
  • 210730Z VRB02KT CAVOK 10/07 Q1028
  • 210700Z 26003KT 220V320 CAVOK 08/07 Q1028
  • 210630Z 25003KT 210V280 CAVOK 07/06 Q1028

TAF TAF LJCE
Valido dal 21 a 09 ore il 21 a 18 ore UTC


210800Z 2109/2118 VRB02KT CAVOK
BECMG 2110/2112 09005KT
Nessun NOTAM noto per questo aeroporto.



MetMap, La meteo Aeronautica in un colpo d'occhio ! - Copyright ORBIFLY Dicembre 2007 - Disclaimer

ORBIFLY MET'MAP TEAM :

Programmazione e sviluppo : Alexandra Zaïnal
Concezione e sviluppo : Baudouin d'Aumeries
Co-Programmazione e sviluppo : Marc-Olivier Méhu
Supporto tecnico e logistico : Manuel Goepfert
Aiuto per la traduzione : Arnaldo La Scala

Contatto : metmap@orbifly.com




FONTI E CREDITI :

   NOAA